sensor_id;sensor_type;location;lat;lon;timestamp;pressure;altitude;pressure_sealevel;temperature;humidity
23281;BME280;11809;56.390;-3.266;2022-09-09T00:15:18;100290.25;;;19.27;70.81
23281;BME280;11809;56.390;-3.266;2022-09-09T00:18:21;100293.03;;;19.26;71.12
23281;BME280;11809;56.390;-3.266;2022-09-09T00:21:07;100292.19;;;19.25;71.12
23281;BME280;11809;56.390;-3.266;2022-09-09T00:23:38;100297.53;;;19.25;71.01
23281;BME280;11809;56.390;-3.266;2022-09-09T00:28:55;100300.31;;;19.24;71.22
23281;BME280;11809;56.390;-3.266;2022-09-09T00:31:29;100295.00;;;19.24;70.95
23281;BME280;11809;56.390;-3.266;2022-09-09T00:34:11;100293.28;;;19.23;71.00
23281;BME280;11809;56.390;-3.266;2022-09-09T00:36:40;100297.75;;;19.22;71.24
23281;BME280;11809;56.390;-3.266;2022-09-09T00:42:18;100291.72;;;19.20;71.00
23281;BME280;11809;56.390;-3.266;2022-09-09T00:45:10;100300.56;;;19.21;71.10
23281;BME280;11809;56.390;-3.266;2022-09-09T00:47:50;100304.91;;;19.22;71.07
23281;BME280;11809;56.390;-3.266;2022-09-09T00:53:10;100295.47;;;19.18;71.02
23281;BME280;11809;56.390;-3.266;2022-09-09T00:58:18;100299.81;;;19.19;71.00
23281;BME280;11809;56.390;-3.266;2022-09-09T01:01:18;100307.81;;;19.19;70.99
23281;BME280;11809;56.390;-3.266;2022-09-09T01:03:52;100305.16;;;19.19;71.14
23281;BME280;11809;56.390;-3.266;2022-09-09T01:06:38;100312.19;;;19.20;70.97
23281;BME280;11809;56.390;-3.266;2022-09-09T01:09:32;100307.00;;;19.18;70.92
23281;BME280;11809;56.390;-3.266;2022-09-09T01:12:23;100314.13;;;19.18;70.71
23281;BME280;11809;56.390;-3.266;2022-09-09T01:14:56;100307.09;;;19.17;71.03
23281;BME280;11809;56.390;-3.266;2022-09-09T01:17:33;100305.16;;;19.19;70.92
23281;BME280;11809;56.390;-3.266;2022-09-09T01:20:26;100305.44;;;19.16;71.04
23281;BME280;11809;56.390;-3.266;2022-09-09T01:28:13;100311.72;;;19.15;71.06
23281;BME280;11809;56.390;-3.266;2022-09-09T01:30:42;100310.00;;;19.14;70.76
23281;BME280;11809;56.390;-3.266;2022-09-09T01:33:17;100307.59;;;19.11;71.11
23281;BME280;11809;56.390;-3.266;2022-09-09T01:35:52;100308.19;;;19.14;71.10
23281;BME280;11809;56.390;-3.266;2022-09-09T01:38:24;100315.34;;;19.14;70.86
23281;BME280;11809;56.390;-3.266;2022-09-09T01:40:52;100309.28;;;19.12;71.00
23281;BME280;11809;56.390;-3.266;2022-09-09T01:43:20;100316.31;;;19.13;71.07
23281;BME280;11809;56.390;-3.266;2022-09-09T01:45:49;100321.91;;;19.10;71.05
23281;BME280;11809;56.390;-3.266;2022-09-09T01:48:17;100319.22;;;19.10;71.02
23281;BME280;11809;56.390;-3.266;2022-09-09T01:50:45;100318.50;;;19.08;71.04
23281;BME280;11809;56.390;-3.266;2022-09-09T01:53:14;100329.03;;;19.09;71.07
23281;BME280;11809;56.390;-3.266;2022-09-09T02:04:16;100327.47;;;19.07;71.14
23281;BME280;11809;56.390;-3.266;2022-09-09T02:06:48;100329.41;;;19.05;71.04
23281;BME280;11809;56.390;-3.266;2022-09-09T02:09:19;100329.41;;;19.05;71.07
23281;BME280;11809;56.390;-3.266;2022-09-09T02:11:52;100326.75;;;19.05;71.04
23281;BME280;11809;56.390;-3.266;2022-09-09T02:14:27;100339.06;;;19.06;71.11
23281;BME280;11809;56.390;-3.266;2022-09-09T02:17:02;100337.41;;;19.05;71.14
23281;BME280;11809;56.390;-3.266;2022-09-09T02:19:37;100342.84;;;19.03;71.37
23281;BME280;11809;56.390;-3.266;2022-09-09T02:22:05;100325.66;;;18.96;71.21
23281;BME280;11809;56.390;-3.266;2022-09-09T02:24:35;100338.50;;;19.02;70.75
23281;BME280;11809;56.390;-3.266;2022-09-09T02:27:05;100351.91;;;19.01;71.54
23281;BME280;11809;56.390;-3.266;2022-09-09T02:29:40;100348.41;;;19.00;71.13
23281;BME280;11809;56.390;-3.266;2022-09-09T02:32:14;100352.06;;;18.99;71.17
23281;BME280;11809;56.390;-3.266;2022-09-09T02:34:46;100352.16;;;18.98;71.30
23281;BME280;11809;56.390;-3.266;2022-09-09T02:37:18;100359.19;;;18.99;71.21
23281;BME280;11809;56.390;-3.266;2022-09-09T02:39:47;100353.00;;;18.98;71.16
23281;BME280;11809;56.390;-3.266;2022-09-09T02:42:14;100364.66;;;18.97;71.27
23281;BME280;11809;56.390;-3.266;2022-09-09T02:44:41;100366.47;;;18.97;71.46
23281;BME280;11809;56.390;-3.266;2022-09-09T02:47:24;100362.81;;;18.98;71.38
23281;BME280;11809;56.390;-3.266;2022-09-09T02:58:10;100371.78;;;18.97;71.08
23281;BME280;11809;56.390;-3.266;2022-09-09T03:00:39;100370.94;;;18.96;71.06
23281;BME280;11809;56.390;-3.266;2022-09-09T03:03:07;100363.91;;;18.95;71.05
23281;BME280;11809;56.390;-3.266;2022-09-09T03:05:36;100368.41;;;18.95;71.09
23281;BME280;11809;56.390;-3.266;2022-09-09T03:08:04;100372.88;;;18.94;71.24
23281;BME280;11809;56.390;-3.266;2022-09-09T03:10:32;100366.56;;;18.95;71.02
23281;BME280;11809;56.390;-3.266;2022-09-09T03:13:00;100360.50;;;18.93;71.22
23281;BME280;11809;56.390;-3.266;2022-09-09T03:15:27;100363.91;;;18.95;71.15
23281;BME280;11809;56.390;-3.266;2022-09-09T03:17:57;100362.22;;;18.94;70.97
23281;BME280;11809;56.390;-3.266;2022-09-09T03:20:25;100366.69;;;18.94;70.86
23281;BME280;11809;56.390;-3.266;2022-09-09T03:22:53;100361.59;;;18.91;71.15
23281;BME280;11809;56.390;-3.266;2022-09-09T03:25:21;100369.47;;;18.92;71.09
23281;BME280;11809;56.390;-3.266;2022-09-09T03:27:53;100373.13;;;18.91;71.08
23281;BME280;11809;56.390;-3.266;2022-09-09T03:30:26;100366.78;;;18.92;71.05
23281;BME280;11809;56.390;-3.266;2022-09-09T03:32:54;100380.25;;;18.91;71.01
23281;BME280;11809;56.390;-3.266;2022-09-09T03:35:21;100366.94;;;18.91;70.99
23281;BME280;11809;56.390;-3.266;2022-09-09T03:37:48;100367.16;;;18.88;71.23
23281;BME280;11809;56.390;-3.266;2022-09-09T03:40:16;100375.06;;;18.89;71.21
23281;BME280;11809;56.390;-3.266;2022-09-09T03:42:43;100367.06;;;18.89;71.15
23281;BME280;11809;56.390;-3.266;2022-09-09T03:45:09;100374.19;;;18.89;70.91
23281;BME280;11809;56.390;-3.266;2022-09-09T03:47:37;100376.00;;;18.88;71.06
23281;BME280;11809;56.390;-3.266;2022-09-09T03:50:06;100377.81;;;18.88;71.11
23281;BME280;11809;56.390;-3.266;2022-09-09T03:52:37;100377.81;;;18.88;71.03
23281;BME280;11809;56.390;-3.266;2022-09-09T03:55:05;100384.00;;;18.88;71.11
23281;BME280;11809;56.390;-3.266;2022-09-09T03:57:34;100376.97;;;18.87;71.01
23281;BME280;11809;56.390;-3.266;2022-09-09T04:00:04;100382.44;;;18.86;71.05
23281;BME280;11809;56.390;-3.266;2022-09-09T04:02:31;100383.16;;;18.88;71.30
23281;BME280;11809;56.390;-3.266;2022-09-09T04:04:58;100385.81;;;18.88;71.07
23281;BME280;11809;56.390;-3.266;2022-09-09T04:07:26;100384.25;;;18.85;71.25
23281;BME280;11809;56.390;-3.266;2022-09-09T04:09:54;100385.94;;;18.86;71.16
23281;BME280;11809;56.390;-3.266;2022-09-09T04:12:21;100380.63;;;18.86;71.08
23281;BME280;11809;56.390;-3.266;2022-09-09T04:14:49;100386.78;;;18.87;71.08
23281;BME280;11809;56.390;-3.266;2022-09-09T04:17:16;100393.94;;;18.86;71.01
23281;BME280;11809;56.390;-3.266;2022-09-09T04:19:44;100395.75;;;18.86;70.99
23281;BME280;11809;56.390;-3.266;2022-09-09T04:22:11;100395.75;;;18.86;71.13
23281;BME280;11809;56.390;-3.266;2022-09-09T04:24:38;100394.88;;;18.85;71.19
23281;BME280;11809;56.390;-3.266;2022-09-09T04:27:05;100402.03;;;18.85;71.02
23281;BME280;11809;56.390;-3.266;2022-09-09T04:29:32;100404.69;;;18.85;71.13
23281;BME280;11809;56.390;-3.266;2022-09-09T04:31:58;100401.31;;;18.83;71.23
23281;BME280;11809;56.390;-3.266;2022-09-09T04:34:25;100408.34;;;18.84;71.00
23281;BME280;11809;56.390;-3.266;2022-09-09T04:36:52;100407.59;;;18.82;71.09
23281;BME280;11809;56.390;-3.266;2022-09-09T04:39:19;100409.41;;;18.81;71.40
23281;BME280;11809;56.390;-3.266;2022-09-09T04:41:46;100413.75;;;18.82;71.37
23281;BME280;11809;56.390;-3.266;2022-09-09T04:44:14;100411.94;;;18.83;71.34
23281;BME280;11809;56.390;-3.266;2022-09-09T04:46:41;100413.66;;;18.84;71.47
23281;BME280;11809;56.390;-3.266;2022-09-09T04:49:08;100410.00;;;18.85;71.55
23281;BME280;11809;56.390;-3.266;2022-09-09T04:51:40;100410.00;;;18.85;71.65
23281;BME280;11809;56.390;-3.266;2022-09-09T04:54:07;100410.00;;;18.85;71.73
23281;BME280;11809;56.390;-3.266;2022-09-09T04:56:34;100416.19;;;18.85;71.88
23281;BME280;11809;56.390;-3.266;2022-09-09T04:59:01;100415.34;;;18.85;71.81
23281;BME280;11809;56.390;-3.266;2022-09-09T05:01:29;100430.50;;;18.84;71.56
23281;BME280;11809;56.390;-3.266;2022-09-09T05:03:56;100429.63;;;18.84;72.05
23281;BME280;11809;56.390;-3.266;2022-09-09T05:06:23;100422.72;;;18.81;72.18
23281;BME280;11809;56.390;-3.266;2022-09-09T05:08:50;100434.97;;;18.84;72.29
23281;BME280;11809;56.390;-3.266;2022-09-09T05:11:23;100435.81;;;18.84;72.42
23281;BME280;11809;56.390;-3.266;2022-09-09T05:13:51;100433.03;;;18.86;72.42
23281;BME280;11809;56.390;-3.266;2022-09-09T05:16:18;100440.06;;;18.87;72.50
23281;BME280;11809;56.390;-3.266;2022-09-09T05:18:46;100437.13;;;18.90;72.36
23281;BME280;11809;56.390;-3.266;2022-09-09T05:21:14;100441.50;;;18.91;72.55
23281;BME280;11809;56.390;-3.266;2022-09-09T05:23:42;100443.19;;;18.92;72.25
23281;BME280;11809;56.390;-3.266;2022-09-09T05:26:14;100444.88;;;18.93;72.23
23281;BME280;11809;56.390;-3.266;2022-09-09T05:28:43;100446.59;;;18.94;72.37
23281;BME280;11809;56.390;-3.266;2022-09-09T05:31:12;100449.97;;;18.96;71.98
23281;BME280;11809;56.390;-3.266;2022-09-09T05:33:41;100447.31;;;18.96;72.37
23281;BME280;11809;56.390;-3.266;2022-09-09T05:36:11;100456.03;;;18.98;72.47
23281;BME280;11809;56.390;-3.266;2022-09-09T05:38:41;100459.44;;;19.00;72.32
23281;BME280;11809;56.390;-3.266;2022-09-09T05:41:10;100461.13;;;19.01;72.53
23281;BME280;11809;56.390;-3.266;2022-09-09T05:43:43;100468.88;;;19.04;72.04
23281;BME280;11809;56.390;-3.266;2022-09-09T05:46:19;100468.75;;;19.05;72.25
23281;BME280;11809;56.390;-3.266;2022-09-09T05:48:48;100470.56;;;19.05;72.25
23281;BME280;11809;56.390;-3.266;2022-09-09T05:51:22;100467.06;;;19.04;72.10
23281;BME280;11809;56.390;-3.266;2022-09-09T05:53:50;100473.97;;;19.07;72.00
23281;BME280;11809;56.390;-3.266;2022-09-09T05:56:28;100485.34;;;19.09;72.09
23281;BME280;11809;56.390;-3.266;2022-09-09T05:58:56;100482.66;;;19.09;71.89
23281;BME280;11809;56.390;-3.266;2022-09-09T06:01:31;100485.47;;;19.07;71.62
23281;BME280;11809;56.390;-3.266;2022-09-09T06:03:58;100484.63;;;19.07;71.82
23281;BME280;11809;56.390;-3.266;2022-09-09T06:06:29;100495.28;;;19.07;71.75
23281;BME280;11809;56.390;-3.266;2022-09-09T06:08:57;100495.28;;;19.07;71.64
23281;BME280;11809;56.390;-3.266;2022-09-09T06:11:27;100492.59;;;19.07;71.55
23281;BME280;11809;56.390;-3.266;2022-09-09T06:13:54;100505.91;;;19.07;71.39
23281;BME280;11809;56.390;-3.266;2022-09-09T06:16:24;100501.44;;;19.07;71.23
23281;BME280;11809;56.390;-3.266;2022-09-09T06:18:52;100503.25;;;19.07;71.30
23281;BME280;11809;56.390;-3.266;2022-09-09T06:21:25;100506.06;;;19.05;71.27
23281;BME280;11809;56.390;-3.266;2022-09-09T06:23:52;100516.72;;;19.05;71.13
23281;BME280;11809;56.390;-3.266;2022-09-09T06:26:29;100520.19;;;19.06;71.04
23281;BME280;11809;56.390;-3.266;2022-09-09T06:28:57;100519.38;;;19.05;70.77
23281;BME280;11809;56.390;-3.266;2022-09-09T06:31:28;100517.53;;;19.06;71.12
23281;BME280;11809;56.390;-3.266;2022-09-09T06:33:58;100532.56;;;19.07;71.26
23281;BME280;11809;56.390;-3.266;2022-09-09T06:36:30;100523.84;;;19.05;71.35
23281;BME280;11809;56.390;-3.266;2022-09-09T06:38:58;100523.84;;;19.05;71.31
23281;BME280;11809;56.390;-3.266;2022-09-09T06:41:27;100532.16;;;19.00;71.14
23281;BME280;11809;56.390;-3.266;2022-09-09T06:43:55;100537.50;;;19.00;70.92
23281;BME280;11809;56.390;-3.266;2022-09-09T06:46:29;100517.03;;;19.01;71.01
23281;BME280;11809;56.390;-3.266;2022-09-09T06:48:58;100536.66;;;19.00;70.80
23281;BME280;11809;56.390;-3.266;2022-09-09T06:51:35;100536.91;;;18.97;70.80
23281;BME280;11809;56.390;-3.266;2022-09-09T06:54:03;100542.22;;;18.97;70.95
23281;BME280;11809;56.390;-3.266;2022-09-09T06:56:34;100542.22;;;18.97;70.77
23281;BME280;11809;56.390;-3.266;2022-09-09T06:59:02;100547.66;;;18.95;70.91
23281;BME280;11809;56.390;-3.266;2022-09-09T07:01:32;100540.75;;;18.93;71.03
23281;BME280;11809;56.390;-3.266;2022-09-09T07:04:00;100539.06;;;18.92;70.82
23281;BME280;11809;56.390;-3.266;2022-09-09T07:06:30;100539.91;;;18.92;71.03
23281;BME280;11809;56.390;-3.266;2022-09-09T07:09:06;100539.16;;;18.90;71.19
23281;BME280;11809;56.390;-3.266;2022-09-09T07:11:38;100539.31;;;18.89;71.49
23281;BME280;11809;56.390;-3.266;2022-09-09T07:14:05;100534.56;;;18.81;71.06
23281;BME280;11809;56.390;-3.266;2022-09-09T07:16:34;100543.03;;;18.86;71.55
23281;BME280;11809;56.390;-3.266;2022-09-09T07:19:04;100552.97;;;18.84;71.12
23281;BME280;11809;56.390;-3.266;2022-09-09T07:21:32;100551.13;;;18.85;71.28
23281;BME280;11809;56.390;-3.266;2022-09-09T07:23:59;100553.78;;;18.85;71.29
23281;BME280;11809;56.390;-3.266;2022-09-09T07:26:29;100568.09;;;18.84;71.47
23281;BME280;11809;56.390;-3.266;2022-09-09T07:28:56;100575.31;;;18.82;71.32
23281;BME280;11809;56.390;-3.266;2022-09-09T07:31:24;100576.31;;;18.81;71.28
23281;BME280;11809;56.390;-3.266;2022-09-09T07:33:52;100580.91;;;18.79;71.33
23281;BME280;11809;56.390;-3.266;2022-09-09T07:36:28;100580.06;;;18.78;71.48
23281;BME280;11809;56.390;-3.266;2022-09-09T07:39:02;100586.34;;;18.77;71.28
23281;BME280;11809;56.390;-3.266;2022-09-09T07:41:39;100597.97;;;18.76;71.33
23281;BME280;11809;56.390;-3.266;2022-09-09T07:44:10;100594.44;;;18.75;71.49
23281;BME280;11809;56.390;-3.266;2022-09-09T07:46:39;100595.41;;;18.74;71.54
23281;BME280;11809;56.390;-3.266;2022-09-09T07:49:07;100605.09;;;18.75;71.47
23281;BME280;11809;56.390;-3.266;2022-09-09T07:51:40;100602.44;;;18.75;71.54
23281;BME280;11809;56.390;-3.266;2022-09-09T07:54:12;100606.91;;;18.75;71.31
23281;BME280;11809;56.390;-3.266;2022-09-09T07:56:40;100613.19;;;18.74;71.14
23281;BME280;11809;56.390;-3.266;2022-09-09T07:59:08;100614.97;;;18.73;71.41
23281;BME280;11809;56.390;-3.266;2022-09-09T08:01:38;100615.84;;;18.74;71.38
23281;BME280;11809;56.390;-3.266;2022-09-09T08:04:08;100632.66;;;18.74;71.35
23281;BME280;11809;56.390;-3.266;2022-09-09T08:06:39;100637.38;;;18.71;71.38
23281;BME280;11809;56.390;-3.266;2022-09-09T08:09:07;100636.53;;;18.70;71.42
23281;BME280;11809;56.390;-3.266;2022-09-09T08:11:35;100648.13;;;18.69;71.44
23281;BME280;11809;56.390;-3.266;2022-09-09T08:14:06;100658.78;;;18.69;71.81
23281;BME280;11809;56.390;-3.266;2022-09-09T08:16:40;100664.13;;;18.69;71.51
23281;BME280;11809;56.390;-3.266;2022-09-09T08:19:08;100665.06;;;18.68;71.49
23281;BME280;11809;56.390;-3.266;2022-09-09T08:21:36;100677.41;;;18.69;71.45
23281;BME280;11809;56.390;-3.266;2022-09-09T08:24:07;100681.03;;;18.68;71.46
23281;BME280;11809;56.390;-3.266;2022-09-09T08:26:39;100683.81;;;18.67;71.35
23281;BME280;11809;56.390;-3.266;2022-09-09T08:29:08;100685.75;;;18.65;71.34
23281;BME280;11809;56.390;-3.266;2022-09-09T08:31:39;100688.50;;;18.63;71.54
23281;BME280;11809;56.390;-3.266;2022-09-09T08:34:07;100688.50;;;18.63;71.48
23281;BME280;11809;56.390;-3.266;2022-09-09T08:36:38;100699.16;;;18.63;71.61
23281;BME280;11809;56.390;-3.266;2022-09-09T08:39:06;100707.25;;;18.62;71.58
23281;BME280;11809;56.390;-3.266;2022-09-09T08:41:59;100704.69;;;18.60;71.33
23281;BME280;11809;56.390;-3.266;2022-09-09T08:53:00;100724.31;;;18.59;71.33
23281;BME280;11809;56.390;-3.266;2022-09-09T08:58:12;100738.56;;;18.58;71.49
23281;BME280;11809;56.390;-3.266;2022-09-09T09:06:06;100734.22;;;18.57;71.52
23281;BME280;11809;56.390;-3.266;2022-09-09T09:11:10;100744.75;;;18.59;71.44
23281;BME280;11809;56.390;-3.266;2022-09-09T09:16:32;100744.63;;;18.60;71.61
23281;BME280;11809;56.390;-3.266;2022-09-09T09:19:02;100747.19;;;18.62;71.64
23281;BME280;11809;56.390;-3.266;2022-09-09T09:21:41;100746.47;;;18.60;71.59
23281;BME280;11809;56.390;-3.266;2022-09-09T09:24:27;100752.53;;;18.62;71.71
23281;BME280;11809;56.390;-3.266;2022-09-09T09:27:11;100749.84;;;18.62;71.39
23281;BME280;11809;56.390;-3.266;2022-09-09T09:29:40;100751.44;;;18.64;71.45
23281;BME280;11809;56.390;-3.266;2022-09-09T09:32:33;100759.53;;;18.63;71.72
23281;BME280;11809;56.390;-3.266;2022-09-09T09:35:02;100761.25;;;18.64;71.50
23281;BME280;11809;56.390;-3.266;2022-09-09T09:37:34;100764.63;;;18.66;71.45
23281;BME280;11809;56.390;-3.266;2022-09-09T09:40:10;100768.06;;;18.68;71.42
23281;BME280;11809;56.390;-3.266;2022-09-09T09:42:57;100769.88;;;18.67;71.27
23281;BME280;11809;56.390;-3.266;2022-09-09T09:48:03;100779.00;;;18.63;71.02
23281;BME280;11809;56.390;-3.266;2022-09-09T09:50:33;100793.41;;;18.61;70.86
23281;BME280;11809;56.390;-3.266;2022-09-09T09:53:04;100787.34;;;18.59;70.69
23281;BME280;11809;56.390;-3.266;2022-09-09T09:55:35;100791.72;;;18.60;70.81
23281;BME280;11809;56.390;-3.266;2022-09-09T09:58:05;100794.25;;;18.61;70.81
23281;BME280;11809;56.390;-3.266;2022-09-09T10:00:33;100786.06;;;18.64;70.58
23281;BME280;11809;56.390;-3.266;2022-09-09T10:03:12;100791.91;;;18.69;70.75
23281;BME280;11809;56.390;-3.266;2022-09-09T10:05:45;100798.81;;;18.72;70.78
23281;BME280;11809;56.390;-3.266;2022-09-09T10:08:14;100792.41;;;18.74;70.91
23281;BME280;11809;56.390;-3.266;2022-09-09T10:13:38;100800.19;;;18.77;70.92
23281;BME280;11809;56.390;-3.266;2022-09-09T10:19:11;100806.25;;;18.80;70.83
23281;BME280;11809;56.390;-3.266;2022-09-09T10:25:10;100812.31;;;18.82;70.50
23281;BME280;11809;56.390;-3.266;2022-09-09T10:33:45;100816.69;;;18.83;71.00
23281;BME280;11809;56.390;-3.266;2022-09-09T10:36:19;100820.84;;;18.87;71.44
23281;BME280;11809;56.390;-3.266;2022-09-09T10:38:59;100824.47;;;18.86;71.22
23281;BME280;11809;56.390;-3.266;2022-09-09T10:57:48;100823.72;;;18.84;69.58
23281;BME280;11809;56.390;-3.266;2022-09-09T11:00:25;100828.19;;;18.83;69.65
23281;BME280;11809;56.390;-3.266;2022-09-09T11:03:02;100835.22;;;18.84;69.98
23281;BME280;11809;56.390;-3.266;2022-09-09T11:05:43;100841.38;;;18.85;70.05
23281;BME280;11809;56.390;-3.266;2022-09-09T11:08:19;100841.28;;;18.86;70.27
23281;BME280;11809;56.390;-3.266;2022-09-09T11:11:06;100837.78;;;18.86;70.54
23281;BME280;11809;56.390;-3.266;2022-09-09T11:13:53;100842.97;;;18.87;70.55
23281;BME280;11809;56.390;-3.266;2022-09-09T11:22:31;100849.88;;;18.90;70.92
23281;BME280;11809;56.390;-3.266;2022-09-09T11:25:28;100846.50;;;18.88;71.01
23281;BME280;11809;56.390;-3.266;2022-09-09T11:36:53;100860.31;;;18.93;71.28
23281;BME280;11809;56.390;-3.266;2022-09-09T11:39:51;100867.38;;;18.94;70.86
23281;BME280;11809;56.390;-3.266;2022-09-09T11:42:23;100871.97;;;18.92;71.21
23281;BME280;11809;56.390;-3.266;2022-09-09T11:44:51;100874.50;;;18.93;71.19
23281;BME280;11809;56.390;-3.266;2022-09-09T11:47:28;100871.84;;;18.93;71.01
23281;BME280;11809;56.390;-3.266;2022-09-09T11:50:09;100877.16;;;18.93;70.92
23281;BME280;11809;56.390;-3.266;2022-09-09T11:52:37;100879.97;;;18.92;71.03
23281;BME280;11809;56.390;-3.266;2022-09-09T11:55:27;100871.97;;;18.92;70.89
23281;BME280;11809;56.390;-3.266;2022-09-09T11:58:03;100880.91;;;18.91;70.99
23281;BME280;11809;56.390;-3.266;2022-09-09T12:00:44;100874.72;;;18.90;71.20
23281;BME280;11809;56.390;-3.266;2022-09-09T12:08:43;100890.81;;;18.89;70.99
23281;BME280;11809;56.390;-3.266;2022-09-09T12:11:24;100889.84;;;18.90;70.87
23281;BME280;11809;56.390;-3.266;2022-09-09T12:13:57;100885.50;;;18.89;70.80
23281;BME280;11809;56.390;-3.266;2022-09-09T12:16:33;100887.41;;;18.87;70.79
23281;BME280;11809;56.390;-3.266;2022-09-09T12:19:18;100893.47;;;18.89;70.85
23281;BME280;11809;56.390;-3.266;2022-09-09T12:27:46;100889.31;;;18.85;70.46
23281;BME280;11809;56.390;-3.266;2022-09-09T12:30:17;100905.28;;;18.85;70.65
23281;BME280;11809;56.390;-3.266;2022-09-09T12:32:44;100899.97;;;18.85;70.50
23281;BME280;11809;56.390;-3.266;2022-09-09T12:35:19;100911.59;;;18.84;70.39
23281;BME280;11809;56.390;-3.266;2022-09-09T12:40:23;100902.84;;;18.82;70.26
23281;BME280;11809;56.390;-3.266;2022-09-09T12:42:50;100910.81;;;18.82;70.25
23281;BME280;11809;56.390;-3.266;2022-09-09T12:45:23;100914.47;;;18.81;70.07
23281;BME280;11809;56.390;-3.266;2022-09-09T12:47:55;100912.66;;;18.81;70.14
23281;BME280;11809;56.390;-3.266;2022-09-09T12:50:30;100904.78;;;18.80;70.26
23281;BME280;11809;56.390;-3.266;2022-09-09T12:53:01;100918.09;;;18.80;70.36
23281;BME280;11809;56.390;-3.266;2022-09-09T12:55:29;100918.09;;;18.80;70.50
23281;BME280;11809;56.390;-3.266;2022-09-09T12:57:58;100918.09;;;18.80;70.45
23281;BME280;11809;56.390;-3.266;2022-09-09T13:00:26;100922.66;;;18.77;70.57
23281;BME280;11809;56.390;-3.266;2022-09-09T13:03:01;100926.19;;;18.78;70.47
23281;BME280;11809;56.390;-3.266;2022-09-09T13:05:37;100928.00;;;18.77;70.35
23281;BME280;11809;56.390;-3.266;2022-09-09T13:08:10;100925.34;;;18.77;70.29
23281;BME280;11809;56.390;-3.266;2022-09-09T13:10:50;100935.13;;;18.77;70.00
23281;BME280;11809;56.390;-3.266;2022-09-09T13:13:30;100934.28;;;18.76;70.02
23281;BME280;11809;56.390;-3.266;2022-09-09T13:16:03;100939.59;;;18.76;69.76
23281;BME280;11809;56.390;-3.266;2022-09-09T13:18:36;100944.91;;;18.76;69.36
23281;BME280;11809;56.390;-3.266;2022-09-09T13:21:05;100937.91;;;18.75;69.26
23281;BME280;11809;56.390;-3.266;2022-09-09T13:23:34;100939.50;;;18.78;69.23
23281;BME280;11809;56.390;-3.266;2022-09-09T13:26:04;100941.31;;;18.77;69.20
23281;BME280;11809;56.390;-3.266;2022-09-09T13:28:34;100934.28;;;18.76;69.40
23281;BME280;11809;56.390;-3.266;2022-09-09T13:31:18;100938.66;;;18.77;69.74
23281;BME280;11809;56.390;-3.266;2022-09-09T13:33:46;100939.59;;;18.76;70.04
23281;BME280;11809;56.390;-3.266;2022-09-09T13:36:13;100934.28;;;18.76;69.87
23281;BME280;11809;56.390;-3.266;2022-09-09T13:38:57;100938.75;;;18.76;69.65
23281;BME280;11809;56.390;-3.266;2022-09-09T13:41:32;100952.06;;;18.76;69.64
23281;BME280;11809;56.390;-3.266;2022-09-09T13:44:01;100955.69;;;18.75;69.97
23281;BME280;11809;56.390;-3.266;2022-09-09T13:51:36;100952.38;;;18.71;68.86
23281;BME280;11809;56.390;-3.266;2022-09-09T13:54:09;100953.22;;;18.72;68.88
23281;BME280;11809;56.390;-3.266;2022-09-09T13:56:37;100955.91;;;18.72;69.23
23281;BME280;11809;56.390;-3.266;2022-09-09T13:59:11;100955.91;;;18.72;69.37
23281;BME280;11809;56.390;-3.266;2022-09-09T14:01:38;100960.47;;;18.70;68.61
23281;BME280;11809;56.390;-3.266;2022-09-09T14:04:05;100967.50;;;18.71;68.83
23281;BME280;11809;56.390;-3.266;2022-09-09T14:06:37;100972.81;;;18.71;69.52
23281;BME280;11809;56.390;-3.266;2022-09-09T14:09:05;100971.13;;;18.70;69.31
23281;BME280;11809;56.390;-3.266;2022-09-09T14:11:33;100978.25;;;18.69;68.81
23281;BME280;11809;56.390;-3.266;2022-09-09T14:14:00;100983.47;;;18.71;68.88
23281;BME280;11809;56.390;-3.266;2022-09-09T14:16:27;100973.78;;;18.70;69.18
23281;BME280;11809;56.390;-3.266;2022-09-09T14:18:54;100968.47;;;18.70;69.16
23281;BME280;11809;56.390;-3.266;2022-09-09T14:21:25;100973.06;;;18.68;69.06
23281;BME280;11809;56.390;-3.266;2022-09-09T14:23:53;100970.47;;;18.66;68.49
23281;BME280;11809;56.390;-3.266;2022-09-09T14:26:23;100970.47;;;18.66;68.91
23281;BME280;11809;56.390;-3.266;2022-09-09T14:28:51;100971.44;;;18.65;68.28
23281;BME280;11809;56.390;-3.266;2022-09-09T14:31:22;100971.44;;;18.65;68.31
23281;BME280;11809;56.390;-3.266;2022-09-09T14:33:50;100971.53;;;18.64;68.07
23281;BME280;11809;56.390;-3.266;2022-09-09T14:36:18;100966.22;;;18.64;68.54
23281;BME280;11809;56.390;-3.266;2022-09-09T14:38:45;100967.16;;;18.63;67.89
23281;BME280;11809;56.390;-3.266;2022-09-09T14:41:14;100980.47;;;18.63;67.82
23281;BME280;11809;56.390;-3.266;2022-09-09T14:43:45;100970.06;;;18.60;67.88
23281;BME280;11809;56.390;-3.266;2022-09-09T14:46:15;100977.06;;;18.61;68.07
23281;BME280;11809;56.390;-3.266;2022-09-09T14:48:43;100981.53;;;18.60;67.13
23281;BME280;11809;56.390;-3.266;2022-09-09T14:51:14;100986.03;;;18.60;68.09
23281;BME280;11809;56.390;-3.266;2022-09-09T14:53:43;100983.38;;;18.60;67.68
23281;BME280;11809;56.390;-3.266;2022-09-09T14:56:13;100990.50;;;18.59;67.89
23281;BME280;11809;56.390;-3.266;2022-09-09T14:58:41;100988.78;;;18.58;67.89
23281;BME280;11809;56.390;-3.266;2022-09-09T15:01:11;100990.50;;;18.59;68.18
23281;BME280;11809;56.390;-3.266;2022-09-09T15:03:40;100993.25;;;18.58;68.12
23281;BME280;11809;56.390;-3.266;2022-09-09T15:06:08;100997.75;;;18.57;68.09
23281;BME280;11809;56.390;-3.266;2022-09-09T15:08:37;100992.41;;;18.57;68.28
23281;BME280;11809;56.390;-3.266;2022-09-09T15:11:09;100994.31;;;18.55;68.46
23281;BME280;11809;56.390;-3.266;2022-09-09T15:13:38;100997.81;;;18.56;67.76
23281;BME280;11809;56.390;-3.266;2022-09-09T15:16:14;100997.81;;;18.56;67.46
23281;BME280;11809;56.390;-3.266;2022-09-09T15:18:43;100997.94;;;18.54;67.84
23281;BME280;11809;56.390;-3.266;2022-09-09T15:21:12;101001.56;;;18.53;67.99